Airfield :
LOGIN :

Register | Disclaimer

   EN    FR    IT 

 










Legend :    VFR   Marginal VFR   IFR   Intensive IFR   Very Intensive IFR
Visi :
Ceiling :
>= 8 km
>= 3000ft
5 to 8 km
1000 to 3000 ft
1500m to 5 km
500 to 1000 ft
800 to 1500m
200 to 500 ft
< 800m
< 200 ft
Symbols :   Thunderstorms  Fog  Heavy snow  Heavy precipitations  Wind > 20 kt
SIGMETs :     Misc.  Thunderstorms  Icing  Turbulence  Mountain Waves  Volcanic Ashes






- Airport Elevation : 463 ft
- IATA code : SZY
- AIRPORT CLOSED.


EPSY - Szczytno

CURRENT METAR :
  • 170100Z 34004KT 8000 NSC 16/16 Q1012

EXPIRED METARs :
  • 170030Z 36003KT CAVOK 16/16 Q1012
  • 170000Z 36004KT 9000 -RA NSC 16/16 Q1012
  • 162330Z 34003KT 290V020 9999 SCT049 16/16 Q1012
  • 162300Z 31004KT 270V350 9999 -RA SCT047 17/17 Q1012
  • 162230Z 30003KT 260V340 9999 -RA BKN049 17/16 Q1012
  • 162200Z VRB03KT CAVOK 17/16 Q1012
  • 162130Z 31005KT 250V340 9999 -RA SCT048 17/16 Q1012
  • 162100Z 25004KT 9999 -RA BKN048 18/15 Q1012
  • 162030Z VRB02KT CAVOK 18/15 Q1012

TAF TAF EPSY
Valid from the 17 at 00:00 until the 17 at 09:00 UTC


162330Z 1700/1709 30006KT 9999 SCT045
TEMPO 1700/1704 -RA BKN035
PROB40
TEMPO 1700/1704 4000 SHRA BKN010 BKN017CB
TEMPO 1700/1705 2000 BR BKN005
PROB30
TEMPO 1700/1704 VRB02KT 0700 FG BKN002



MET'MAP, your aeronautical weather chart ! - Copyright ORBIFLY December 2007 - Disclaimer

ORBIFLY MET'MAP TEAM :

Programming & Development : Alexandra Zaïnal
Original concept : Baudouin d'Aumeries
Technical & hardware support : Manuel Goepfert
Assistance : Marc-Olivier Méhu




SOURCES & CREDITS :

   NOAA